Flight Track Log - Related Links

Times and Time Zones

All times are in EDT time to prevent confusion due to time zone crossing. See the WEW1540 flight status page for this flight to view local times or setup timezone preferences in your user account.

Time Position Orientation Groundspeed Altitude Reporting Facility
EDT Latitude Longitude Course Direction KTS MPH feet Rate Location/Type
Fri 08:03:57 AM 50.4167 -104.7000 265° West 90 104 3,100  Level Winnipeg Center
Fri 08:04:58 AM 50.4333 -104.7500 298° West 120 138 4,000 800 Climbing Winnipeg Center
Fri 08:05:57 AM 50.4167 -104.8000 242° Southwest 130 150 4,700 807 Climbing Winnipeg Center
Fri 08:06:57 AM 50.4167 -104.8500 270° West 120 138 5,600 645 Climbing Winnipeg Center
Fri 08:07:58 AM 50.4167 -104.9000 270° West 120 138 6,000 200 Climbing Winnipeg Center
Fri 08:08:57 AM 50.4000 -104.9833 253° West 140 161 6,000  Level Winnipeg Center
Fri 08:09:00 AM 50.4137 -105.0219 265° West  Level FlightAware Approximate
Fri 08:09:57 AM 50.4000 -105.0333 270° West 150 173 6,000  Level Winnipeg Center
Fri 08:10:57 AM 50.4167 -105.1167 287° West 150 173 6,000  Level Winnipeg Center
Fri 08:11:57 AM 50.4000 -105.1667 242° Southwest 150 173 6,000  Level Winnipeg Center
Fri 08:12:57 AM 50.4167 -105.2500 287° West 160 184 6,000  Level Winnipeg Center
Fri 08:13:57 AM 50.4167 -105.3000 270° West 160 184 6,000  Level Winnipeg Center
Fri 08:14:57 AM 50.4167 -105.3833 270° West 160 184 6,000  Level Winnipeg Center
Fri 08:15:57 AM 50.4000 -105.4500 249° West 160 184 6,000  Level Winnipeg Center
Fri 08:16:57 AM 50.4167 -105.5167 291° West 160 184 6,000  Level Winnipeg Center
Fri 08:17:57 AM 50.4000 -105.5833 249° West 160 184 6,000  Level Winnipeg Center
Fri 08:18:57 AM 50.3833 -105.6667 253° West 170 196 6,000  Level Winnipeg Center
Fri 08:19:57 AM 50.3833 -105.7500 270° West 170 196 6,000 -150 Level Winnipeg Center
Fri 08:20:57 AM 50.3667 -105.8167 249° West 170 196 5,700 -150 Descending Winnipeg Center
Fri 08:21:57 AM 50.3667 -105.8667 270° West 170 196 5,700  Level Winnipeg Center
Fri 08:22:57 AM 50.3667 -105.9500 270° West 170 196 5,700  Level Winnipeg Center
Fri 08:23:57 AM 50.3667 -106.0333 270° West 170 196 5,700 99 Level Winnipeg Center
Fri 08:24:58 AM 50.3500 -106.1000 249° West 170 196 5,900 100 Climbing Winnipeg Center
Fri 08:25:57 AM 50.3500 -106.1833 270° West 170 196 5,900  Level Winnipeg Center
Fri 08:26:57 AM 50.3333 -106.2667 253° West 170 196 5,900  Level Winnipeg Center
Fri 08:27:57 AM 50.3333 -106.3167 270° West 170 196 5,900  Level Winnipeg Center
Fri 08:28:57 AM 50.3500 -106.4000 287° West 160 184 5,900  Level Winnipeg Center
Fri 08:29:58 AM 50.3333 -106.4667 249° West 170 196 5,900  Level Winnipeg Center
Fri 08:30:57 AM 50.3333 -106.5500 270° West 170 196 5,900  Level Winnipeg Center
Fri 08:31:57 AM 50.3500 -106.6333 287° West 170 196 5,900  Level Winnipeg Center
Fri 08:32:57 AM 50.3333 -106.6833 242° Southwest 170 196 5,900  Level Winnipeg Center
Fri 08:33:57 AM 50.3333 -106.7667 270° West 170 196 5,900  Level Winnipeg Center
Fri 08:34:58 AM 50.3167 -106.8333 249° West 170 196 5,900  Level Winnipeg Center
Fri 08:35:57 AM 50.3167 -106.9167 270° West 170 196 5,900 50 Level Winnipeg Center
Fri 08:36:57 AM 50.3167 -107.0000 270° West 170 196 6,000 100 Climbing Winnipeg Center
Fri 08:38:00 AM 50.3131 -107.0720 266° West  Level FlightAware Approximate
Fri 08:45:00 AM 50.2916 -107.5522 265° West  Level FlightAware Approximate
Fri 08:46:00 AM 50.2873 -107.6206 264° West  Level FlightAware Approximate
Fri 08:47:00 AM 50.2833 -107.6833 265° West  Level FlightAware Approximate
Fri 08:48:00 AM 50.2919 -107.6906 265° West  Level Estimated
Fri 08:49:00 AM 50.2919 -107.6906 265° West  Level Estimated
Fri 08:50:00 AM 50.2919 -107.6906 265° West  Level Estimated
Fri 08:51:00 AM 50.2919 -107.6906 265° West  Level Estimated
Fri 08:52:00 AM 50.2919 -107.6906 265° West  Level Estimated
Fri 08:53:00 AM 50.2919 -107.6906 265° West  Level Estimated
Fri 08:54:00 AM 50.2919 -107.6906 265° West  Level Estimated
Fri 08:55:00 AM 50.2919 -107.6906 265° West  Level Estimated

Login

Don't have an account? Register now (free) for customized features, flight alerts, and more!